sensor_id;sensor_type;location;lat;lon;timestamp;P1;durP1;ratioP1;P2;durP2;ratioP2
3293;SDS011;1659;51.470;6.770;2022-10-31T00:00:44;23.27;;;10.90;;
3293;SDS011;1659;51.470;6.770;2022-10-31T00:03:11;19.17;;;11.77;;
3293;SDS011;1659;51.470;6.770;2022-10-31T00:05:40;19.80;;;10.43;;
3293;SDS011;1659;51.470;6.770;2022-10-31T00:08:08;16.80;;;10.87;;
3293;SDS011;1659;51.470;6.770;2022-10-31T00:10:36;21.87;;;11.80;;
3293;SDS011;1659;51.470;6.770;2022-10-31T00:13:03;20.57;;;12.10;;
3293;SDS011;1659;51.470;6.770;2022-10-31T00:15:31;24.93;;;13.10;;
3293;SDS011;1659;51.470;6.770;2022-10-31T00:17:58;18.43;;;10.40;;
3293;SDS011;1659;51.470;6.770;2022-10-31T00:20:25;22.57;;;10.53;;
3293;SDS011;1659;51.470;6.770;2022-10-31T00:22:51;20.10;;;11.50;;
3293;SDS011;1659;51.470;6.770;2022-10-31T00:25:19;23.83;;;12.80;;
3293;SDS011;1659;51.470;6.770;2022-10-31T00:27:46;21.20;;;12.27;;
3293;SDS011;1659;51.470;6.770;2022-10-31T00:30:13;18.63;;;11.20;;
3293;SDS011;1659;51.470;6.770;2022-10-31T00:32:39;18.53;;;11.97;;
3293;SDS011;1659;51.470;6.770;2022-10-31T00:35:06;27.47;;;11.17;;
3293;SDS011;1659;51.470;6.770;2022-10-31T00:37:33;18.87;;;10.20;;
3293;SDS011;1659;51.470;6.770;2022-10-31T00:39:59;21.80;;;11.33;;
3293;SDS011;1659;51.470;6.770;2022-10-31T00:42:27;21.57;;;11.77;;
3293;SDS011;1659;51.470;6.770;2022-10-31T00:44:54;24.37;;;13.60;;
3293;SDS011;1659;51.470;6.770;2022-10-31T00:47:20;27.67;;;12.03;;
3293;SDS011;1659;51.470;6.770;2022-10-31T00:49:47;20.93;;;12.83;;
3293;SDS011;1659;51.470;6.770;2022-10-31T00:52:13;20.67;;;12.27;;
3293;SDS011;1659;51.470;6.770;2022-10-31T00:54:40;22.47;;;11.50;;
3293;SDS011;1659;51.470;6.770;2022-10-31T00:57:06;23.37;;;11.50;;
3293;SDS011;1659;51.470;6.770;2022-10-31T00:59:34;19.83;;;12.07;;
3293;SDS011;1659;51.470;6.770;2022-10-31T01:02:01;30.43;;;14.03;;
3293;SDS011;1659;51.470;6.770;2022-10-31T01:04:27;21.23;;;11.90;;
3293;SDS011;1659;51.470;6.770;2022-10-31T01:06:54;20.33;;;12.43;;
3293;SDS011;1659;51.470;6.770;2022-10-31T01:09:20;22.70;;;11.70;;
3293;SDS011;1659;51.470;6.770;2022-10-31T01:11:47;20.10;;;11.40;;
3293;SDS011;1659;51.470;6.770;2022-10-31T01:14:13;36.80;;;16.60;;
3293;SDS011;1659;51.470;6.770;2022-10-31T01:16:41;27.20;;;15.43;;
3293;SDS011;1659;51.470;6.770;2022-10-31T01:19:08;26.90;;;13.20;;
3293;SDS011;1659;51.470;6.770;2022-10-31T01:21:34;36.67;;;16.60;;
3293;SDS011;1659;51.470;6.770;2022-10-31T01:24:01;23.97;;;12.37;;
3293;SDS011;1659;51.470;6.770;2022-10-31T01:26:29;23.23;;;13.00;;
3293;SDS011;1659;51.470;6.770;2022-10-31T01:28:57;24.67;;;13.50;;
3293;SDS011;1659;51.470;6.770;2022-10-31T01:31:25;29.70;;;13.10;;
3293;SDS011;1659;51.470;6.770;2022-10-31T01:33:54;25.97;;;13.20;;
3293;SDS011;1659;51.470;6.770;2022-10-31T01:36:22;28.20;;;15.37;;
3293;SDS011;1659;51.470;6.770;2022-10-31T01:38:50;25.33;;;11.70;;
3293;SDS011;1659;51.470;6.770;2022-10-31T01:41:19;28.27;;;15.03;;
3293;SDS011;1659;51.470;6.770;2022-10-31T01:43:49;26.43;;;13.83;;
3293;SDS011;1659;51.470;6.770;2022-10-31T01:46:18;26.90;;;15.90;;
3293;SDS011;1659;51.470;6.770;2022-10-31T01:48:48;27.53;;;14.70;;
3293;SDS011;1659;51.470;6.770;2022-10-31T01:51:17;31.30;;;14.83;;
3293;SDS011;1659;51.470;6.770;2022-10-31T01:53:46;33.67;;;15.23;;
3293;SDS011;1659;51.470;6.770;2022-10-31T01:56:13;27.60;;;15.03;;
3293;SDS011;1659;51.470;6.770;2022-10-31T01:58:42;26.60;;;15.17;;
3293;SDS011;1659;51.470;6.770;2022-10-31T02:01:11;32.23;;;14.77;;
3293;SDS011;1659;51.470;6.770;2022-10-31T02:03:40;31.93;;;16.33;;
3293;SDS011;1659;51.470;6.770;2022-10-31T02:06:09;34.73;;;16.13;;
3293;SDS011;1659;51.470;6.770;2022-10-31T02:08:44;28.07;;;15.50;;
3293;SDS011;1659;51.470;6.770;2022-10-31T02:11:11;25.23;;;15.30;;
3293;SDS011;1659;51.470;6.770;2022-10-31T02:13:39;29.30;;;16.03;;
3293;SDS011;1659;51.470;6.770;2022-10-31T02:16:05;31.70;;;15.53;;
3293;SDS011;1659;51.470;6.770;2022-10-31T02:18:32;32.03;;;15.20;;
3293;SDS011;1659;51.470;6.770;2022-10-31T02:21:01;29.40;;;15.60;;
3293;SDS011;1659;51.470;6.770;2022-10-31T02:29:48;25.47;;;15.50;;
3293;SDS011;1659;51.470;6.770;2022-10-31T02:32:36;33.87;;;16.53;;
3293;SDS011;1659;51.470;6.770;2022-10-31T02:35:10;24.00;;;15.07;;
3293;SDS011;1659;51.470;6.770;2022-10-31T02:37:43;27.73;;;16.60;;
3293;SDS011;1659;51.470;6.770;2022-10-31T02:40:20;34.33;;;16.20;;
3293;SDS011;1659;51.470;6.770;2022-10-31T02:42:51;31.43;;;15.80;;
3293;SDS011;1659;51.470;6.770;2022-10-31T02:45:25;33.00;;;17.97;;
3293;SDS011;1659;51.470;6.770;2022-10-31T02:47:58;24.83;;;15.33;;
3293;SDS011;1659;51.470;6.770;2022-10-31T02:50:31;34.23;;;15.27;;
3293;SDS011;1659;51.470;6.770;2022-10-31T02:53:00;24.90;;;15.70;;
3293;SDS011;1659;51.470;6.770;2022-10-31T02:58:24;27.80;;;14.80;;
3293;SDS011;1659;51.470;6.770;2022-10-31T03:00:59;32.00;;;15.40;;
3293;SDS011;1659;51.470;6.770;2022-10-31T03:03:42;28.10;;;15.67;;
3293;SDS011;1659;51.470;6.770;2022-10-31T03:06:20;30.13;;;16.40;;
3293;SDS011;1659;51.470;6.770;2022-10-31T03:08:58;27.60;;;16.03;;
3293;SDS011;1659;51.470;6.770;2022-10-31T03:11:33;29.60;;;15.73;;
3293;SDS011;1659;51.470;6.770;2022-10-31T03:14:10;35.83;;;17.73;;
3293;SDS011;1659;51.470;6.770;2022-10-31T03:16:45;24.77;;;15.20;;
3293;SDS011;1659;51.470;6.770;2022-10-31T03:19:15;28.00;;;15.73;;
3293;SDS011;1659;51.470;6.770;2022-10-31T03:21:47;27.37;;;15.43;;
3293;SDS011;1659;51.470;6.770;2022-10-31T03:24:19;31.70;;;17.17;;
3293;SDS011;1659;51.470;6.770;2022-10-31T03:26:49;27.83;;;15.47;;
3293;SDS011;1659;51.470;6.770;2022-10-31T03:29:19;24.73;;;13.90;;
3293;SDS011;1659;51.470;6.770;2022-10-31T03:31:49;22.80;;;14.10;;
3293;SDS011;1659;51.470;6.770;2022-10-31T03:34:21;33.63;;;16.30;;
3293;SDS011;1659;51.470;6.770;2022-10-31T03:36:48;27.30;;;15.93;;
3293;SDS011;1659;51.470;6.770;2022-10-31T03:39:18;22.53;;;14.93;;
3293;SDS011;1659;51.470;6.770;2022-10-31T03:41:50;28.77;;;16.30;;
3293;SDS011;1659;51.470;6.770;2022-10-31T03:44:20;24.90;;;14.57;;
3293;SDS011;1659;51.470;6.770;2022-10-31T03:46:49;32.43;;;16.23;;
3293;SDS011;1659;51.470;6.770;2022-10-31T03:49:16;33.37;;;16.40;;
3293;SDS011;1659;51.470;6.770;2022-10-31T03:51:45;31.03;;;19.10;;
3293;SDS011;1659;51.470;6.770;2022-10-31T03:54:17;26.67;;;15.60;;
3293;SDS011;1659;51.470;6.770;2022-10-31T03:56:51;31.67;;;16.30;;
3293;SDS011;1659;51.470;6.770;2022-10-31T03:59:21;32.83;;;17.00;;
3293;SDS011;1659;51.470;6.770;2022-10-31T04:01:54;30.97;;;17.40;;
3293;SDS011;1659;51.470;6.770;2022-10-31T04:04:23;27.87;;;16.77;;
3293;SDS011;1659;51.470;6.770;2022-10-31T04:06:53;39.77;;;18.70;;
3293;SDS011;1659;51.470;6.770;2022-10-31T04:09:22;37.23;;;18.00;;
3293;SDS011;1659;51.470;6.770;2022-10-31T04:11:51;28.30;;;16.50;;
3293;SDS011;1659;51.470;6.770;2022-10-31T04:14:20;32.03;;;18.90;;
3293;SDS011;1659;51.470;6.770;2022-10-31T04:16:50;33.23;;;18.27;;
3293;SDS011;1659;51.470;6.770;2022-10-31T04:19:17;35.00;;;17.13;;
3293;SDS011;1659;51.470;6.770;2022-10-31T04:21:44;31.63;;;16.63;;
3293;SDS011;1659;51.470;6.770;2022-10-31T04:24:11;30.80;;;17.33;;
3293;SDS011;1659;51.470;6.770;2022-10-31T04:26:38;31.33;;;16.80;;
3293;SDS011;1659;51.470;6.770;2022-10-31T04:29:05;29.93;;;17.50;;
3293;SDS011;1659;51.470;6.770;2022-10-31T04:31:31;35.90;;;16.60;;
3293;SDS011;1659;51.470;6.770;2022-10-31T04:33:57;31.90;;;16.73;;
3293;SDS011;1659;51.470;6.770;2022-10-31T04:36:24;29.23;;;17.40;;
3293;SDS011;1659;51.470;6.770;2022-10-31T04:38:50;38.60;;;18.07;;
3293;SDS011;1659;51.470;6.770;2022-10-31T04:41:18;27.00;;;16.73;;
3293;SDS011;1659;51.470;6.770;2022-10-31T04:43:45;32.20;;;18.07;;
3293;SDS011;1659;51.470;6.770;2022-10-31T04:46:11;31.17;;;17.53;;
3293;SDS011;1659;51.470;6.770;2022-10-31T04:48:38;26.27;;;16.33;;
3293;SDS011;1659;51.470;6.770;2022-10-31T04:51:04;29.73;;;18.00;;
3293;SDS011;1659;51.470;6.770;2022-10-31T04:53:31;30.80;;;17.40;;
3293;SDS011;1659;51.470;6.770;2022-10-31T04:55:58;31.87;;;17.60;;
3293;SDS011;1659;51.470;6.770;2022-10-31T04:58:27;34.20;;;18.30;;
3293;SDS011;1659;51.470;6.770;2022-10-31T05:00:54;25.87;;;15.63;;
3293;SDS011;1659;51.470;6.770;2022-10-31T05:03:21;32.20;;;16.90;;
3293;SDS011;1659;51.470;6.770;2022-10-31T05:05:48;27.10;;;15.93;;
3293;SDS011;1659;51.470;6.770;2022-10-31T05:08:15;38.63;;;18.53;;
3293;SDS011;1659;51.470;6.770;2022-10-31T05:10:41;31.53;;;16.80;;
3293;SDS011;1659;51.470;6.770;2022-10-31T05:13:08;28.63;;;16.77;;
3293;SDS011;1659;51.470;6.770;2022-10-31T05:15:36;37.77;;;17.03;;
3293;SDS011;1659;51.470;6.770;2022-10-31T05:18:02;35.33;;;16.07;;
3293;SDS011;1659;51.470;6.770;2022-10-31T05:20:29;27.40;;;14.90;;
3293;SDS011;1659;51.470;6.770;2022-10-31T05:22:58;26.60;;;16.00;;
3293;SDS011;1659;51.470;6.770;2022-10-31T05:25:26;28.90;;;16.70;;
3293;SDS011;1659;51.470;6.770;2022-10-31T05:27:54;32.20;;;16.77;;
3293;SDS011;1659;51.470;6.770;2022-10-31T05:30:23;25.87;;;15.37;;
3293;SDS011;1659;51.470;6.770;2022-10-31T05:32:52;30.03;;;15.57;;
3293;SDS011;1659;51.470;6.770;2022-10-31T05:35:20;32.13;;;16.40;;
3293;SDS011;1659;51.470;6.770;2022-10-31T05:37:48;28.00;;;16.73;;
3293;SDS011;1659;51.470;6.770;2022-10-31T05:40:15;30.07;;;16.53;;
3293;SDS011;1659;51.470;6.770;2022-10-31T05:42:43;33.43;;;16.93;;
3293;SDS011;1659;51.470;6.770;2022-10-31T05:45:11;32.00;;;17.57;;
3293;SDS011;1659;51.470;6.770;2022-10-31T05:47:39;29.83;;;17.47;;
3293;SDS011;1659;51.470;6.770;2022-10-31T05:50:08;35.10;;;17.53;;
3293;SDS011;1659;51.470;6.770;2022-10-31T05:52:35;40.80;;;18.20;;
3293;SDS011;1659;51.470;6.770;2022-10-31T05:55:02;24.17;;;15.70;;
3293;SDS011;1659;51.470;6.770;2022-10-31T05:57:33;28.70;;;15.73;;
3293;SDS011;1659;51.470;6.770;2022-10-31T05:59:59;28.40;;;16.30;;
3293;SDS011;1659;51.470;6.770;2022-10-31T06:02:26;38.67;;;17.17;;
3293;SDS011;1659;51.470;6.770;2022-10-31T06:04:56;30.10;;;16.40;;
3293;SDS011;1659;51.470;6.770;2022-10-31T06:07:24;32.53;;;16.10;;
3293;SDS011;1659;51.470;6.770;2022-10-31T06:09:51;27.60;;;16.87;;
3293;SDS011;1659;51.470;6.770;2022-10-31T06:12:17;27.90;;;17.30;;
3293;SDS011;1659;51.470;6.770;2022-10-31T06:14:44;32.63;;;16.60;;
3293;SDS011;1659;51.470;6.770;2022-10-31T06:17:10;32.93;;;17.57;;
3293;SDS011;1659;51.470;6.770;2022-10-31T06:19:37;44.70;;;18.37;;
3293;SDS011;1659;51.470;6.770;2022-10-31T06:22:03;28.90;;;16.77;;
3293;SDS011;1659;51.470;6.770;2022-10-31T06:24:31;27.10;;;17.10;;
3293;SDS011;1659;51.470;6.770;2022-10-31T06:26:58;27.67;;;16.13;;
3293;SDS011;1659;51.470;6.770;2022-10-31T06:29:24;27.83;;;16.23;;
3293;SDS011;1659;51.470;6.770;2022-10-31T06:31:51;35.40;;;17.10;;
3293;SDS011;1659;51.470;6.770;2022-10-31T06:34:18;33.97;;;18.27;;
3293;SDS011;1659;51.470;6.770;2022-10-31T06:36:45;36.93;;;17.83;;
3293;SDS011;1659;51.470;6.770;2022-10-31T06:39:12;32.77;;;16.63;;
3293;SDS011;1659;51.470;6.770;2022-10-31T06:41:40;26.30;;;16.10;;
3293;SDS011;1659;51.470;6.770;2022-10-31T06:44:06;33.10;;;17.23;;
3293;SDS011;1659;51.470;6.770;2022-10-31T06:46:33;33.37;;;18.57;;
3293;SDS011;1659;51.470;6.770;2022-10-31T06:49:00;28.07;;;16.30;;
3293;SDS011;1659;51.470;6.770;2022-10-31T06:51:26;30.43;;;17.37;;
3293;SDS011;1659;51.470;6.770;2022-10-31T06:53:53;31.27;;;18.10;;
3293;SDS011;1659;51.470;6.770;2022-10-31T06:56:19;36.17;;;18.83;;
3293;SDS011;1659;51.470;6.770;2022-10-31T06:58:47;26.40;;;17.00;;
3293;SDS011;1659;51.470;6.770;2022-10-31T07:01:14;37.43;;;20.70;;
3293;SDS011;1659;51.470;6.770;2022-10-31T07:03:40;33.00;;;17.20;;
3293;SDS011;1659;51.470;6.770;2022-10-31T07:06:07;41.53;;;20.40;;
3293;SDS011;1659;51.470;6.770;2022-10-31T07:08:33;30.60;;;17.63;;
3293;SDS011;1659;51.470;6.770;2022-10-31T07:11:00;29.07;;;16.17;;
3293;SDS011;1659;51.470;6.770;2022-10-31T07:13:26;28.63;;;16.27;;
3293;SDS011;1659;51.470;6.770;2022-10-31T07:15:55;30.70;;;18.00;;
3293;SDS011;1659;51.470;6.770;2022-10-31T07:18:26;31.60;;;19.60;;
3293;SDS011;1659;51.470;6.770;2022-10-31T07:20:52;28.87;;;17.20;;
3293;SDS011;1659;51.470;6.770;2022-10-31T07:23:19;33.20;;;18.67;;
3293;SDS011;1659;51.470;6.770;2022-10-31T07:25:46;36.37;;;18.40;;
3293;SDS011;1659;51.470;6.770;2022-10-31T07:28:12;31.10;;;18.70;;
3293;SDS011;1659;51.470;6.770;2022-10-31T07:30:39;35.23;;;18.00;;
3293;SDS011;1659;51.470;6.770;2022-10-31T07:33:08;35.07;;;18.73;;
3293;SDS011;1659;51.470;6.770;2022-10-31T07:35:34;32.27;;;19.43;;
3293;SDS011;1659;51.470;6.770;2022-10-31T07:38:07;38.17;;;20.00;;
3293;SDS011;1659;51.470;6.770;2022-10-31T07:40:35;38.10;;;21.50;;
3293;SDS011;1659;51.470;6.770;2022-10-31T07:43:01;32.00;;;20.00;;
3293;SDS011;1659;51.470;6.770;2022-10-31T07:45:28;30.77;;;18.60;;
3293;SDS011;1659;51.470;6.770;2022-10-31T07:47:55;43.10;;;22.33;;
3293;SDS011;1659;51.470;6.770;2022-10-31T07:50:24;38.13;;;20.13;;
3293;SDS011;1659;51.470;6.770;2022-10-31T07:52:58;38.17;;;22.50;;
3293;SDS011;1659;51.470;6.770;2022-10-31T07:55:26;48.77;;;25.30;;
3293;SDS011;1659;51.470;6.770;2022-10-31T07:57:56;43.00;;;21.70;;
3293;SDS011;1659;51.470;6.770;2022-10-31T08:00:24;39.63;;;22.23;;
3293;SDS011;1659;51.470;6.770;2022-10-31T08:02:56;52.67;;;22.80;;
3293;SDS011;1659;51.470;6.770;2022-10-31T08:05:24;42.33;;;22.87;;
3293;SDS011;1659;51.470;6.770;2022-10-31T08:07:51;51.27;;;24.30;;
3293;SDS011;1659;51.470;6.770;2022-10-31T08:10:17;36.60;;;21.27;;
3293;SDS011;1659;51.470;6.770;2022-10-31T08:12:44;36.23;;;21.27;;
3293;SDS011;1659;51.470;6.770;2022-10-31T08:15:10;40.27;;;21.53;;
3293;SDS011;1659;51.470;6.770;2022-10-31T08:17:37;47.90;;;22.20;;
3293;SDS011;1659;51.470;6.770;2022-10-31T08:20:05;37.30;;;20.30;;
3293;SDS011;1659;51.470;6.770;2022-10-31T08:22:33;29.97;;;19.30;;
3293;SDS011;1659;51.470;6.770;2022-10-31T08:25:00;40.83;;;20.40;;
3293;SDS011;1659;51.470;6.770;2022-10-31T08:27:26;38.00;;;20.80;;
3293;SDS011;1659;51.470;6.770;2022-10-31T08:29:53;33.13;;;19.87;;
3293;SDS011;1659;51.470;6.770;2022-10-31T08:32:19;36.80;;;20.53;;
3293;SDS011;1659;51.470;6.770;2022-10-31T08:34:46;45.00;;;19.87;;
3293;SDS011;1659;51.470;6.770;2022-10-31T08:37:12;38.07;;;20.43;;
3293;SDS011;1659;51.470;6.770;2022-10-31T08:39:45;34.40;;;19.67;;
3293;SDS011;1659;51.470;6.770;2022-10-31T08:42:11;33.10;;;18.87;;
3293;SDS011;1659;51.470;6.770;2022-10-31T08:44:38;36.27;;;20.27;;
3293;SDS011;1659;51.470;6.770;2022-10-31T08:47:05;41.00;;;20.80;;
3293;SDS011;1659;51.470;6.770;2022-10-31T08:49:31;51.37;;;20.40;;
3293;SDS011;1659;51.470;6.770;2022-10-31T08:51:58;34.30;;;21.03;;
3293;SDS011;1659;51.470;6.770;2022-10-31T08:54:24;51.07;;;22.70;;
3293;SDS011;1659;51.470;6.770;2022-10-31T08:56:54;37.93;;;20.83;;
3293;SDS011;1659;51.470;6.770;2022-10-31T08:59:21;32.53;;;21.53;;
3293;SDS011;1659;51.470;6.770;2022-10-31T09:01:48;40.17;;;20.70;;
3293;SDS011;1659;51.470;6.770;2022-10-31T09:04:14;36.60;;;20.27;;
3293;SDS011;1659;51.470;6.770;2022-10-31T09:06:41;41.73;;;20.63;;
3293;SDS011;1659;51.470;6.770;2022-10-31T09:09:07;36.13;;;20.40;;
3293;SDS011;1659;51.470;6.770;2022-10-31T09:11:34;43.93;;;19.03;;
3293;SDS011;1659;51.470;6.770;2022-10-31T09:14:02;31.80;;;18.90;;
3293;SDS011;1659;51.470;6.770;2022-10-31T09:16:28;30.57;;;19.00;;
3293;SDS011;1659;51.470;6.770;2022-10-31T09:18:55;36.93;;;19.00;;
3293;SDS011;1659;51.470;6.770;2022-10-31T09:21:21;35.37;;;21.17;;
3293;SDS011;1659;51.470;6.770;2022-10-31T09:23:48;37.73;;;19.67;;
3293;SDS011;1659;51.470;6.770;2022-10-31T09:26:14;33.73;;;20.50;;
3293;SDS011;1659;51.470;6.770;2022-10-31T09:28:41;31.90;;;20.33;;
3293;SDS011;1659;51.470;6.770;2022-10-31T09:31:11;34.53;;;21.00;;
3293;SDS011;1659;51.470;6.770;2022-10-31T09:33:37;50.23;;;21.77;;
3293;SDS011;1659;51.470;6.770;2022-10-31T09:36:04;41.80;;;20.00;;
3293;SDS011;1659;51.470;6.770;2022-10-31T09:38:31;40.27;;;21.03;;
3293;SDS011;1659;51.470;6.770;2022-10-31T09:41:01;35.30;;;20.20;;
3293;SDS011;1659;51.470;6.770;2022-10-31T09:43:35;36.17;;;20.57;;
3293;SDS011;1659;51.470;6.770;2022-10-31T09:46:13;40.57;;;20.43;;
3293;SDS011;1659;51.470;6.770;2022-10-31T09:48:47;36.67;;;20.00;;
3293;SDS011;1659;51.470;6.770;2022-10-31T09:51:25;36.80;;;20.80;;
3293;SDS011;1659;51.470;6.770;2022-10-31T09:53:57;40.70;;;21.37;;
3293;SDS011;1659;51.470;6.770;2022-10-31T09:56:28;34.00;;;21.13;;
3293;SDS011;1659;51.470;6.770;2022-10-31T09:58:57;40.87;;;20.80;;
3293;SDS011;1659;51.470;6.770;2022-10-31T10:01:29;45.07;;;22.17;;
3293;SDS011;1659;51.470;6.770;2022-10-31T10:04:01;53.03;;;22.40;;
3293;SDS011;1659;51.470;6.770;2022-10-31T10:06:35;40.63;;;22.20;;
3293;SDS011;1659;51.470;6.770;2022-10-31T10:09:07;43.57;;;23.00;;
3293;SDS011;1659;51.470;6.770;2022-10-31T10:11:39;39.10;;;21.00;;
3293;SDS011;1659;51.470;6.770;2022-10-31T10:14:18;44.13;;;22.40;;
3293;SDS011;1659;51.470;6.770;2022-10-31T10:16:59;40.93;;;22.53;;
3293;SDS011;1659;51.470;6.770;2022-10-31T10:19:42;44.47;;;22.93;;
3293;SDS011;1659;51.470;6.770;2022-10-31T10:22:27;45.00;;;22.67;;
3293;SDS011;1659;51.470;6.770;2022-10-31T10:25:04;52.17;;;24.07;;
3293;SDS011;1659;51.470;6.770;2022-10-31T10:27:42;44.73;;;22.93;;
3293;SDS011;1659;51.470;6.770;2022-10-31T10:30:17;41.33;;;24.03;;
3293;SDS011;1659;51.470;6.770;2022-10-31T10:32:47;43.93;;;22.93;;
3293;SDS011;1659;51.470;6.770;2022-10-31T10:35:19;52.63;;;25.53;;
3293;SDS011;1659;51.470;6.770;2022-10-31T10:37:51;50.50;;;26.63;;
3293;SDS011;1659;51.470;6.770;2022-10-31T10:40:23;50.27;;;24.30;;
3293;SDS011;1659;51.470;6.770;2022-10-31T10:42:55;47.17;;;22.77;;
3293;SDS011;1659;51.470;6.770;2022-10-31T10:45:44;52.70;;;26.33;;
3293;SDS011;1659;51.470;6.770;2022-10-31T10:48:38;48.87;;;25.43;;
3293;SDS011;1659;51.470;6.770;2022-10-31T10:51:15;42.00;;;23.27;;
3293;SDS011;1659;51.470;6.770;2022-10-31T10:53:51;42.03;;;21.97;;
3293;SDS011;1659;51.470;6.770;2022-10-31T10:56:30;46.00;;;22.70;;
3293;SDS011;1659;51.470;6.770;2022-10-31T10:59:16;42.23;;;22.30;;
3293;SDS011;1659;51.470;6.770;2022-10-31T11:01:45;42.53;;;22.43;;
3293;SDS011;1659;51.470;6.770;2022-10-31T11:04:23;41.37;;;23.80;;
3293;SDS011;1659;51.470;6.770;2022-10-31T11:06:59;40.30;;;23.00;;
3293;SDS011;1659;51.470;6.770;2022-10-31T11:09:27;40.93;;;22.67;;
3293;SDS011;1659;51.470;6.770;2022-10-31T11:11:54;39.40;;;21.83;;
3293;SDS011;1659;51.470;6.770;2022-10-31T11:14:22;43.03;;;22.17;;
3293;SDS011;1659;51.470;6.770;2022-10-31T11:16:51;34.37;;;20.57;;
3293;SDS011;1659;51.470;6.770;2022-10-31T11:19:22;45.03;;;22.93;;
3293;SDS011;1659;51.470;6.770;2022-10-31T11:21:51;41.57;;;22.43;;
3293;SDS011;1659;51.470;6.770;2022-10-31T11:24:19;45.60;;;23.07;;
3293;SDS011;1659;51.470;6.770;2022-10-31T11:26:47;49.73;;;23.20;;
3293;SDS011;1659;51.470;6.770;2022-10-31T11:29:16;49.80;;;23.97;;
3293;SDS011;1659;51.470;6.770;2022-10-31T11:31:46;38.73;;;22.30;;
3293;SDS011;1659;51.470;6.770;2022-10-31T11:34:18;42.40;;;21.80;;
3293;SDS011;1659;51.470;6.770;2022-10-31T11:36:52;39.70;;;21.13;;
3293;SDS011;1659;51.470;6.770;2022-10-31T11:39:20;37.07;;;20.90;;
3293;SDS011;1659;51.470;6.770;2022-10-31T11:41:50;53.03;;;22.60;;
3293;SDS011;1659;51.470;6.770;2022-10-31T11:44:19;38.90;;;22.50;;
3293;SDS011;1659;51.470;6.770;2022-10-31T11:46:48;34.80;;;20.87;;
3293;SDS011;1659;51.470;6.770;2022-10-31T11:49:18;48.40;;;22.17;;
3293;SDS011;1659;51.470;6.770;2022-10-31T11:51:50;37.47;;;19.40;;
3293;SDS011;1659;51.470;6.770;2022-10-31T11:54:20;41.50;;;20.90;;
3293;SDS011;1659;51.470;6.770;2022-10-31T11:56:48;40.53;;;20.40;;
3293;SDS011;1659;51.470;6.770;2022-10-31T11:59:17;33.27;;;18.67;;
3293;SDS011;1659;51.470;6.770;2022-10-31T12:01:47;35.03;;;18.27;;
3293;SDS011;1659;51.470;6.770;2022-10-31T12:04:15;34.10;;;18.60;;
3293;SDS011;1659;51.470;6.770;2022-10-31T12:06:42;40.53;;;17.53;;
3293;SDS011;1659;51.470;6.770;2022-10-31T12:09:16;37.17;;;19.13;;
3293;SDS011;1659;51.470;6.770;2022-10-31T12:11:49;45.43;;;19.17;;
3293;SDS011;1659;51.470;6.770;2022-10-31T12:14:38;36.43;;;17.50;;
3293;SDS011;1659;51.470;6.770;2022-10-31T12:17:14;32.03;;;17.70;;
3293;SDS011;1659;51.470;6.770;2022-10-31T12:19:45;28.80;;;17.20;;
3293;SDS011;1659;51.470;6.770;2022-10-31T12:22:26;32.30;;;17.27;;
3293;SDS011;1659;51.470;6.770;2022-10-31T12:25:02;29.77;;;17.10;;
3293;SDS011;1659;51.470;6.770;2022-10-31T12:27:47;30.73;;;15.00;;
3293;SDS011;1659;51.470;6.770;2022-10-31T12:30:32;35.93;;;15.80;;
3293;SDS011;1659;51.470;6.770;2022-10-31T12:33:16;36.47;;;15.20;;
3293;SDS011;1659;51.470;6.770;2022-10-31T12:35:55;25.77;;;15.10;;
3293;SDS011;1659;51.470;6.770;2022-10-31T12:38:38;23.03;;;13.40;;
3293;SDS011;1659;51.470;6.770;2022-10-31T12:41:21;28.00;;;14.40;;
3293;SDS011;1659;51.470;6.770;2022-10-31T12:44:03;27.47;;;13.73;;
3293;SDS011;1659;51.470;6.770;2022-10-31T12:46:36;27.60;;;14.17;;
3293;SDS011;1659;51.470;6.770;2022-10-31T12:49:24;26.60;;;13.13;;
3293;SDS011;1659;51.470;6.770;2022-10-31T12:52:04;24.93;;;14.60;;
3293;SDS011;1659;51.470;6.770;2022-10-31T12:54:49;26.30;;;14.37;;
3293;SDS011;1659;51.470;6.770;2022-10-31T12:57:27;25.73;;;12.60;;
3293;SDS011;1659;51.470;6.770;2022-10-31T12:59:59;22.77;;;12.83;;
3293;SDS011;1659;51.470;6.770;2022-10-31T13:02:29;25.37;;;13.60;;
3293;SDS011;1659;51.470;6.770;2022-10-31T13:05:01;25.70;;;13.37;;
3293;SDS011;1659;51.470;6.770;2022-10-31T13:07:30;21.43;;;13.03;;
3293;SDS011;1659;51.470;6.770;2022-10-31T13:10:01;23.90;;;12.60;;
3293;SDS011;1659;51.470;6.770;2022-10-31T13:12:35;24.33;;;13.27;;
3293;SDS011;1659;51.470;6.770;2022-10-31T13:15:04;26.03;;;12.20;;
3293;SDS011;1659;51.470;6.770;2022-10-31T13:17:39;19.83;;;12.00;;
3293;SDS011;1659;51.470;6.770;2022-10-31T13:20:15;25.23;;;12.00;;
3293;SDS011;1659;51.470;6.770;2022-10-31T13:22:46;22.77;;;12.00;;
3293;SDS011;1659;51.470;6.770;2022-10-31T13:25:16;26.37;;;13.30;;
3293;SDS011;1659;51.470;6.770;2022-10-31T13:27:50;15.40;;;10.70;;
3293;SDS011;1659;51.470;6.770;2022-10-31T13:30:20;19.80;;;10.53;;
3293;SDS011;1659;51.470;6.770;2022-10-31T13:32:49;32.30;;;11.37;;
3293;SDS011;1659;51.470;6.770;2022-10-31T13:35:22;17.27;;;11.00;;
3293;SDS011;1659;51.470;6.770;2022-10-31T13:38:09;15.77;;;10.10;;
3293;SDS011;1659;51.470;6.770;2022-10-31T13:40:45;19.90;;;10.13;;
3293;SDS011;1659;51.470;6.770;2022-10-31T13:43:22;16.00;;;10.20;;
3293;SDS011;1659;51.470;6.770;2022-10-31T13:45:55;19.57;;;10.93;;
3293;SDS011;1659;51.470;6.770;2022-10-31T13:48:38;22.33;;;11.70;;
3293;SDS011;1659;51.470;6.770;2022-10-31T13:51:08;16.20;;;9.57;;
3293;SDS011;1659;51.470;6.770;2022-10-31T13:53:37;19.60;;;10.63;;
3293;SDS011;1659;51.470;6.770;2022-10-31T13:56:12;17.60;;;11.07;;
3293;SDS011;1659;51.470;6.770;2022-10-31T14:01:48;17.07;;;10.27;;
3293;SDS011;1659;51.470;6.770;2022-10-31T14:04:17;22.10;;;9.17;;
3293;SDS011;1659;51.470;6.770;2022-10-31T14:06:50;21.03;;;9.23;;
3293;SDS011;1659;51.470;6.770;2022-10-31T14:09:23;20.20;;;9.30;;
3293;SDS011;1659;51.470;6.770;2022-10-31T14:11:53;15.43;;;9.33;;
3293;SDS011;1659;51.470;6.770;2022-10-31T14:14:22;14.43;;;9.37;;
3293;SDS011;1659;51.470;6.770;2022-10-31T14:16:58;20.77;;;10.50;;
3293;SDS011;1659;51.470;6.770;2022-10-31T14:19:25;17.33;;;9.90;;
3293;SDS011;1659;51.470;6.770;2022-10-31T14:21:53;17.17;;;9.40;;
3293;SDS011;1659;51.470;6.770;2022-10-31T14:30:08;21.63;;;8.53;;
3293;SDS011;1659;51.470;6.770;2022-10-31T14:32:40;17.00;;;7.53;;
3293;SDS011;1659;51.470;6.770;2022-10-31T14:35:12;14.10;;;8.80;;
3293;SDS011;1659;51.470;6.770;2022-10-31T14:37:47;19.03;;;8.33;;
3293;SDS011;1659;51.470;6.770;2022-10-31T14:40:27;16.00;;;7.37;;
3293;SDS011;1659;51.470;6.770;2022-10-31T14:43:07;17.13;;;8.23;;
3293;SDS011;1659;51.470;6.770;2022-10-31T14:45:51;17.77;;;8.83;;
3293;SDS011;1659;51.470;6.770;2022-10-31T14:48:29;15.27;;;8.97;;
3293;SDS011;1659;51.470;6.770;2022-10-31T14:51:08;17.93;;;7.60;;
3293;SDS011;1659;51.470;6.770;2022-10-31T14:53:45;15.93;;;7.93;;
3293;SDS011;1659;51.470;6.770;2022-10-31T14:56:14;19.23;;;8.60;;
3293;SDS011;1659;51.470;6.770;2022-10-31T14:58:46;15.77;;;9.10;;
3293;SDS011;1659;51.470;6.770;2022-10-31T15:01:23;20.57;;;9.33;;
3293;SDS011;1659;51.470;6.770;2022-10-31T15:03:52;18.00;;;10.57;;
3293;SDS011;1659;51.470;6.770;2022-10-31T15:06:21;25.73;;;10.20;;
3293;SDS011;1659;51.470;6.770;2022-10-31T15:08:49;18.60;;;9.70;;
3293;SDS011;1659;51.470;6.770;2022-10-31T15:11:18;11.93;;;8.17;;
3293;SDS011;1659;51.470;6.770;2022-10-31T15:13:46;12.07;;;8.47;;
3293;SDS011;1659;51.470;6.770;2022-10-31T15:18:48;20.33;;;9.07;;
3293;SDS011;1659;51.470;6.770;2022-10-31T15:21:18;11.63;;;7.90;;
3293;SDS011;1659;51.470;6.770;2022-10-31T15:23:46;17.63;;;7.57;;
3293;SDS011;1659;51.470;6.770;2022-10-31T15:26:14;10.90;;;6.40;;